Rangoon, Burma
Current Conditions -  °F | °C
As of 9:30 PM on Thursday 30 Oct 2014 (Local Time) from VYYY Reporting Station
Scattered Clouds Scattered Clouds  
Wind Chill: 79°   Ceiling: Unl
Heat Index: 83°   Visibility: 4mi
Dew Point: 77°   Wind: 2mph
Humidity: 94%   Direction: 340°NNW
Pressure: 29.85"   Gusts: NA
Location:  16.79°N, 96.15°E
Report Text: VYYY 301530Z 34002KT 7000 SCT020 SCT110 26/25 Q1011 NOSIG
Loading
Personal Weather Stations






























Interactive Weather Map
Tropical Storm Tracking
New forecast layout! Learn more

10-Day Weather Forecast

Advertisements
Track Severe Weather on mobile